createdAt,value
2022-10-10T00:02:58.497Z,98083.66
2022-10-10T00:07:00.571Z,98083.50
2022-10-10T00:11:02.682Z,98085.22
2022-10-10T00:15:05.594Z,98079.25
2022-10-10T00:19:07.709Z,98076.66
2022-10-10T00:23:09.757Z,98069.59
2022-10-10T00:27:11.769Z,98074.66
2022-10-10T00:31:14.180Z,98072.25
2022-10-10T00:35:16.231Z,98067.09
2022-10-10T00:39:18.250Z,98068.84
2022-10-10T00:43:21.788Z,98061.09
2022-10-10T00:47:23.866Z,98064.63
2022-10-10T00:51:26.069Z,98053.63
2022-10-10T00:55:28.227Z,98061.53
2022-10-10T00:59:36.494Z,98057.97
2022-10-10T01:03:38.530Z,98050.38
2022-10-10T01:07:41.551Z,98058.22
2022-10-10T01:12:00.595Z,98049.94
2022-10-10T01:16:25.829Z,98046.41
2022-10-10T01:20:45.428Z,98034.22
2022-10-10T01:25:02.650Z,98033.25
2022-10-10T01:29:17.604Z,98032.28
2022-10-10T01:33:32.024Z,98036.59
2022-10-10T01:37:45.161Z,98026.25
2022-10-10T01:42:03.206Z,98021.94
2022-10-10T01:46:13.561Z,98024.44
2022-10-10T01:50:19.669Z,98023.41
2022-10-10T01:54:47.584Z,98012.75
2022-10-10T01:59:04.270Z,98016.00
2022-10-10T02:03:21.976Z,98012.25
2022-10-10T02:07:31.303Z,98016.28
2022-10-10T02:11:38.143Z,98015.16
2022-10-10T02:15:50.072Z,98007.09
2022-10-10T02:19:56.697Z,97996.47
2022-10-10T02:24:03.749Z,98008.44
2022-10-10T02:28:25.699Z,97998.72
2022-10-10T02:32:42.886Z,97995.97
2022-10-10T02:36:49.448Z,97975.69
2022-10-10T02:40:51.900Z,97976.34
2022-10-10T02:44:55.057Z,97975.41
2022-10-10T02:48:58.811Z,97968.34
2022-10-10T02:53:00.804Z,97972.69
2022-10-10T02:57:02.778Z,97967.34
2022-10-10T03:01:04.903Z,97975.16
2022-10-10T03:05:07.503Z,97974.09
2022-10-10T03:09:09.497Z,97974.97
2022-10-10T03:13:11.467Z,97980.06
2022-10-10T03:17:13.442Z,97976.56
2022-10-10T03:21:15.838Z,97973.03
2022-10-10T03:25:17.877Z,97968.69
2022-10-10T03:29:19.992Z,97971.25
2022-10-10T03:33:22.533Z,97961.22
2022-10-10T03:37:24.533Z,97964.56
2022-10-10T03:41:26.545Z,97968.00
2022-10-10T03:45:28.552Z,97967.16
2022-10-10T03:49:30.673Z,97962.78
2022-10-10T03:53:32.778Z,97961.97
2022-10-10T03:57:34.977Z,97958.41
2022-10-10T04:01:37.338Z,97961.69
2022-10-10T04:05:39.733Z,97969.50
2022-10-10T04:09:41.704Z,97958.31
2022-10-10T04:13:43.684Z,97962.72
2022-10-10T04:17:45.656Z,97960.09
2022-10-10T04:21:47.642Z,97959.31
2022-10-10T04:25:53.359Z,97961.09
2022-10-10T04:29:55.348Z,97959.41
2022-10-10T04:33:57.337Z,97962.13
2022-10-10T04:37:59.336Z,97949.97
2022-10-10T04:42:01.399Z,97956.13
2022-10-10T04:46:03.551Z,97945.75
2022-10-10T04:50:06.015Z,97952.69
2022-10-10T04:54:08.057Z,97955.09
2022-10-10T04:58:10.026Z,97953.38
2022-10-10T05:02:12.103Z,97956.84
2022-10-10T05:06:14.096Z,97961.31
2022-10-10T05:10:16.362Z,97957.00
2022-10-10T05:14:18.375Z,97958.63
2022-10-10T05:18:21.438Z,97957.75
2022-10-10T05:22:23.422Z,97955.19
2022-10-10T05:26:25.483Z,97959.47
2022-10-10T05:30:27.483Z,97958.75
2022-10-10T05:34:29.569Z,97960.63
2022-10-10T05:38:31.627Z,97963.31
2022-10-10T05:42:33.624Z,97965.72
2022-10-10T05:46:35.663Z,97958.16
2022-10-10T05:50:40.631Z,97955.59
2022-10-10T05:54:42.640Z,97958.16
2022-10-10T05:58:45.244Z,97959.94
2022-10-10T06:02:47.332Z,97969.47
2022-10-10T06:06:50.342Z,97960.91
2022-10-10T06:10:52.899Z,97962.81
2022-10-10T06:14:54.930Z,97969.81
2022-10-10T06:18:57.136Z,97981.88
2022-10-10T06:22:59.143Z,97979.03
2022-10-10T06:27:01.141Z,97985.00
2022-10-10T06:31:06.513Z,97983.19
2022-10-10T06:35:08.621Z,97991.88
2022-10-10T06:39:10.669Z,97984.97
2022-10-10T06:43:14.444Z,97990.03
2022-10-10T06:47:16.918Z,97991.53
2022-10-10T06:51:19.020Z,97984.22
2022-10-10T06:55:21.000Z,97999.59
2022-10-10T06:59:22.998Z,97991.50
2022-10-10T07:03:25.880Z,98000.63
2022-10-10T07:07:27.902Z,98004.41
2022-10-10T07:11:30.096Z,98005.78
2022-10-10T07:15:32.110Z,98006.34
2022-10-10T07:19:37.223Z,98016.34
2022-10-10T07:23:39.450Z,98019.44
2022-10-10T07:27:41.546Z,98026.91
2022-10-10T07:31:43.555Z,98027.31
2022-10-10T07:35:54.040Z,98032.56
2022-10-10T07:39:56.081Z,98028.78
2022-10-10T07:43:58.125Z,98027.66
2022-10-10T07:48:00.200Z,98024.78
2022-10-10T07:52:02.523Z,98027.09
2022-10-10T07:56:06.269Z,98022.56
2022-10-10T08:00:10.012Z,98023.97
2022-10-10T08:04:14.888Z,98030.13
2022-10-10T08:08:16.891Z,98031.19
2022-10-10T08:12:18.920Z,98019.56
2022-10-10T08:16:21.062Z,98028.38
2022-10-10T08:20:23.098Z,98026.94
2022-10-10T08:24:25.206Z,98024.66
2022-10-10T08:28:28.282Z,98021.28
2022-10-10T08:32:30.427Z,98021.94
2022-10-10T08:36:32.430Z,98028.50
2022-10-10T08:40:42.360Z,98010.97
2022-10-10T08:44:53.005Z,98004.38
2022-10-10T08:48:58.440Z,98007.91
2022-10-10T08:53:11.654Z,98007.41
2022-10-10T08:57:26.030Z,98015.22
2022-10-10T09:01:34.732Z,98000.34
2022-10-10T09:05:36.681Z,98003.75
2022-10-10T09:10:12.451Z,97991.94
2022-10-10T09:14:44.709Z,97991.22
2022-10-10T09:19:12.500Z,98003.34
2022-10-10T09:23:19.734Z,98004.16
2022-10-10T09:27:26.994Z,98009.44
2022-10-10T09:31:33.948Z,98018.19
2022-10-10T09:35:39.028Z,98019.72
2022-10-10T09:39:48.698Z,98015.22
2022-10-10T09:43:59.124Z,98014.09
2022-10-10T09:48:01.107Z,98010.34
2022-10-10T09:52:20.877Z,98001.78
2022-10-10T09:56:27.319Z,98004.63
2022-10-10T10:00:35.199Z,98002.38
2022-10-10T10:04:37.232Z,98000.06
2022-10-10T10:08:39.648Z,98010.00
2022-10-10T10:12:44.122Z,98003.25
2022-10-10T10:16:46.123Z,98007.25
2022-10-10T10:20:51.363Z,98015.56
2022-10-10T10:24:53.765Z,98013.47
2022-10-10T10:29:00.317Z,98014.91
2022-10-10T10:33:15.766Z,98014.44
2022-10-10T10:37:23.896Z,98026.66
2022-10-10T10:41:38.265Z,98026.91
2022-10-10T10:46:07.136Z,98019.75
2022-10-10T10:50:27.849Z,98011.63
2022-10-10T10:54:40.128Z,98021.22
2022-10-10T10:59:36.260Z,98023.13
2022-10-10T11:05:16.047Z,98019.50
2022-10-10T11:08:03.165Z,98024.28
2022-10-10T11:12:27.039Z,98020.97
2022-10-10T11:16:53.669Z,98018.66
2022-10-10T11:21:05.376Z,98009.56
2022-10-10T11:25:16.987Z,98007.25
2022-10-10T11:29:27.771Z,98010.34
2022-10-10T11:33:42.812Z,98013.41
2022-10-10T11:37:53.174Z,98016.22
2022-10-10T11:42:00.297Z,98008.59
2022-10-10T11:46:33.920Z,98007.69
2022-10-10T11:50:40.298Z,98017.16
2022-10-10T11:55:14.011Z,98013.97
2022-10-10T11:59:34.031Z,98008.88
2022-10-10T12:03:36.020Z,98005.78
2022-10-10T12:07:49.103Z,98011.19
2022-10-10T12:12:02.633Z,98012.03
2022-10-10T12:16:10.522Z,98009.25
2022-10-10T12:20:15.587Z,98013.69
2022-10-10T12:24:17.624Z,98015.50
2022-10-10T12:28:56.318Z,98014.84
2022-10-10T12:32:58.864Z,98010.75
2022-10-10T12:37:21.653Z,98009.00
2022-10-10T12:41:52.695Z,98010.44
2022-10-10T12:46:09.603Z,98008.41
2022-10-10T12:50:41.575Z,98009.25
2022-10-10T12:54:45.634Z,98012.16
2022-10-10T12:58:49.517Z,98009.16
2022-10-10T13:02:57.716Z,98004.03
2022-10-10T13:07:02.480Z,98000.16
2022-10-10T13:11:13.343Z,98010.22
2022-10-10T13:15:20.256Z,98000.63
2022-10-10T13:19:24.354Z,98007.41
2022-10-10T13:23:26.662Z,98012.88
2022-10-10T13:27:32.281Z,98018.81
2022-10-10T13:31:34.355Z,98017.94
2022-10-10T13:35:38.157Z,98017.34
2022-10-10T13:39:40.615Z,98015.41
2022-10-10T13:43:42.697Z,98014.34
2022-10-10T13:47:56.771Z,98017.97
2022-10-10T13:52:20.221Z,98018.94
2022-10-10T13:56:30.959Z,98012.91
2022-10-10T14:00:33.058Z,98020.88
2022-10-10T14:04:44.153Z,98020.78
2022-10-10T14:08:48.183Z,98014.81
2022-10-10T14:12:56.608Z,98014.09
2022-10-10T14:17:00.991Z,98007.66
2022-10-10T14:21:03.339Z,98009.72
2022-10-10T14:25:05.941Z,98001.75
2022-10-10T14:29:13.463Z,98007.09
2022-10-10T14:33:17.632Z,98011.34
2022-10-10T14:37:25.184Z,98007.47
2022-10-10T14:41:27.298Z,98021.13
2022-10-10T14:45:29.374Z,98019.78
2022-10-10T14:49:31.357Z,98018.72
2022-10-10T14:53:33.349Z,98015.09
2022-10-10T14:57:35.330Z,98015.09
2022-10-10T15:01:37.319Z,98015.81
2022-10-10T15:05:40.316Z,98022.56
2022-10-10T15:10:10.870Z,98016.03
2022-10-10T15:14:06.843Z,98014.09
2022-10-10T15:18:25.704Z,98009.69
2022-10-10T15:22:31.687Z,98010.13
2022-10-10T15:26:33.745Z,98015.06
2022-10-10T15:30:39.484Z,98019.94
2022-10-10T15:34:44.242Z,98023.81
2022-10-10T15:38:46.332Z,98024.38
2022-10-10T15:42:49.968Z,98022.41
2022-10-10T15:46:53.127Z,98030.06
2022-10-10T15:50:55.168Z,98032.06
2022-10-10T15:54:57.183Z,98035.19
2022-10-10T15:59:01.381Z,98037.47
2022-10-10T16:03:03.483Z,98035.47
2022-10-10T16:07:24.606Z,98042.16
2022-10-10T16:11:28.343Z,98054.88
2022-10-10T16:15:30.579Z,98061.03
2022-10-10T16:19:32.609Z,98060.81
2022-10-10T16:23:34.683Z,98057.91
2022-10-10T16:27:38.465Z,98066.25
2022-10-10T16:31:40.995Z,98075.72
2022-10-10T16:35:43.097Z,98069.25
2022-10-10T16:39:45.100Z,98080.34
2022-10-10T16:43:48.044Z,98087.75
2022-10-10T16:47:50.022Z,98082.84
2022-10-10T16:51:52.031Z,98089.41
2022-10-10T16:55:59.225Z,98085.34
2022-10-10T17:00:01.194Z,98094.44
2022-10-10T17:04:03.574Z,98099.25
2022-10-10T17:08:05.610Z,98097.97
2022-10-10T17:12:07.592Z,98106.78
2022-10-10T17:20:43.323Z,98132.00
2022-10-10T17:24:45.335Z,98132.94
2022-10-10T17:28:47.416Z,98139.09
2022-10-10T17:32:50.125Z,98157.31
2022-10-10T17:36:52.853Z,98159.47
2022-10-10T17:41:00.019Z,98171.38
2022-10-10T17:45:02.094Z,98175.06
2022-10-10T17:49:06.029Z,98181.50
2022-10-10T17:53:08.031Z,98189.06
2022-10-10T17:57:10.284Z,98207.44
2022-10-10T18:01:14.547Z,98215.88
2022-10-10T18:05:16.807Z,98212.16
2022-10-10T18:09:18.851Z,98199.91
2022-10-10T18:13:20.898Z,98213.88
2022-10-10T18:17:23.104Z,98222.00
2022-10-10T18:21:25.172Z,98224.94
2022-10-10T18:25:27.426Z,98231.44
2022-10-10T18:29:29.498Z,98227.28
2022-10-10T18:33:31.501Z,98232.38
2022-10-10T18:37:35.422Z,98240.81
2022-10-10T18:41:37.525Z,98246.66
2022-10-10T18:45:39.619Z,98255.66
2022-10-10T18:49:41.761Z,98259.22
2022-10-10T18:53:45.256Z,98250.19
2022-10-10T18:57:47.295Z,98245.34
2022-10-10T19:01:52.515Z,98249.84
2022-10-10T19:05:55.440Z,98258.75
2022-10-10T19:09:57.429Z,98246.66
2022-10-10T19:14:01.156Z,98254.84
2022-10-10T19:18:03.325Z,98265.06
2022-10-10T19:22:05.367Z,98270.84
2022-10-10T19:26:10.498Z,98272.25
2022-10-10T19:30:13.352Z,98278.63
2022-10-10T19:34:15.419Z,98281.47
2022-10-10T19:38:17.399Z,98280.84
2022-10-10T19:42:19.418Z,98293.44
2022-10-10T19:46:22.636Z,98298.03
2022-10-10T19:50:24.656Z,98298.19
2022-10-10T19:54:26.684Z,98303.56
2022-10-10T19:58:29.388Z,98302.59
2022-10-10T20:02:32.174Z,98313.16
2022-10-10T20:06:34.209Z,98316.88
2022-10-10T20:10:39.672Z,98318.66
2022-10-10T20:14:41.688Z,98321.47
2022-10-10T20:18:43.835Z,98334.75
2022-10-10T20:22:45.906Z,98333.06
2022-10-10T20:26:47.961Z,98332.22
2022-10-10T20:30:51.396Z,98336.00
2022-10-10T20:34:53.382Z,98333.69
2022-10-10T20:39:04.881Z,98340.75
2022-10-10T20:43:07.178Z,98347.34
2022-10-10T20:47:09.157Z,98346.91
2022-10-10T20:51:12.968Z,98344.50
2022-10-10T20:55:14.962Z,98354.34
2022-10-10T20:59:18.294Z,98356.28
2022-10-10T21:03:20.301Z,98362.63
2022-10-10T21:07:22.433Z,98372.47
2022-10-10T21:11:24.520Z,98382.41
2022-10-10T21:15:26.584Z,98382.50
2022-10-10T21:19:28.578Z,98389.53
2022-10-10T21:23:35.149Z,98394.03
2022-10-10T21:27:37.181Z,98397.50
2022-10-10T21:31:40.671Z,98406.13
2022-10-10T21:35:42.747Z,98405.34
2022-10-10T21:39:44.937Z,98408.97
2022-10-10T21:43:57.507Z,98402.16
2022-10-10T21:47:59.538Z,98408.56
2022-10-10T21:52:01.590Z,98419.44
2022-10-10T21:56:08.957Z,98425.00
2022-10-10T22:00:12.074Z,98430.59
2022-10-10T22:04:14.118Z,98434.53
2022-10-10T22:08:16.146Z,98445.50
2022-10-10T22:12:18.205Z,98445.69
2022-10-10T22:16:20.691Z,98460.00
2022-10-10T22:20:22.924Z,98456.88
2022-10-10T22:24:25.103Z,98458.91
2022-10-10T22:28:27.263Z,98473.19
2022-10-10T22:32:29.731Z,98478.00
2022-10-10T22:36:31.798Z,98472.19
2022-10-10T22:40:34.284Z,98479.56
2022-10-10T22:44:36.355Z,98486.88
2022-10-10T22:48:38.446Z,98488.91
2022-10-10T22:52:41.220Z,98489.03
2022-10-10T22:56:43.381Z,98492.56
2022-10-10T23:00:45.466Z,98496.16
2022-10-10T23:04:47.570Z,98502.59
2022-10-10T23:08:49.616Z,98508.13
2022-10-10T23:12:51.710Z,98511.22
2022-10-10T23:16:53.735Z,98514.13
2022-10-10T23:20:56.108Z,98506.34
2022-10-10T23:24:58.194Z,98507.69
2022-10-10T23:29:00.266Z,98509.53
2022-10-10T23:33:02.321Z,98510.53
2022-10-10T23:37:04.314Z,98516.88
2022-10-10T23:41:07.272Z,98510.16
2022-10-10T23:45:09.793Z,98521.81
2022-10-10T23:49:11.795Z,98527.38
2022-10-10T23:53:14.048Z,98537.22
2022-10-10T23:57:16.043Z,98543.50
